Time;durP1;ratioP1;P1;durP2;ratioP2;P2;SDS_P1;SDS_P2;PMS_P1;PMS_P2;Temp;Humidity;BMP_temperature;BMP_pressure;BME280_temperature;BME280_humidity;BME280_pressure;Samples;Min_cycle;Max_cycle;Signal;HPM_P1;HPM_P2
2022/04/22 00:00:40;;;;;;;3.40;2.00;;;22.90;39.10;;;;;;4996794;28;20044;-44
2022/04/22 00:03:07;;;;;;;3.40;1.70;;;22.90;39.10;;;;;;4996792;28;20076;-46
2022/04/22 00:05:34;;;;;;;3.75;1.67;;;22.90;39.10;;;;;;4997493;28;20026;-44
2022/04/22 00:08:01;;;;;;;2.70;1.40;;;22.90;39.20;;;;;;5000347;28;20327;-45
2022/04/22 00:10:26;;;;;;;2.80;1.63;;;22.90;39.10;;;;;;4999895;28;20342;-46
2022/04/22 00:12:52;;;;;;;3.08;1.75;;;22.90;39.10;;;;;;4999970;28;20548;-45
2022/04/22 00:15:18;;;;;;;2.63;1.67;;;22.80;39.10;;;;;;5000063;28;20165;-45
2022/04/22 00:17:43;;;;;;;2.85;1.73;;;22.80;39.10;;;;;;4999368;28;20029;-45
2022/04/22 00:20:11;;;;;;;3.40;1.85;;;22.80;39.10;;;;;;4999705;28;20061;-44
2022/04/22 00:22:39;;;;;;;2.83;1.50;;;22.80;39.10;;;;;;4999192;28;20529;-45
2022/04/22 00:25:06;;;;;;;2.67;1.38;;;22.80;39.10;;;;;;4999398;28;20077;-45
2022/04/22 00:27:32;;;;;;;2.90;1.52;;;22.80;39.20;;;;;;4999774;28;20820;-45
2022/04/22 00:29:57;;;;;;;3.00;1.60;;;22.80;39.20;;;;;;5000122;28;20030;-46
2022/04/22 00:32:23;;;;;;;3.30;1.83;;;22.80;39.10;;;;;;4999369;28;20056;-45
2022/04/22 00:34:49;;;;;;;4.28;1.90;;;22.80;39.10;;;;;;4982366;28;20037;-44
2022/04/22 00:37:15;;;;;;;2.83;1.65;;;22.80;39.10;;;;;;4998959;28;20093;-45
2022/04/22 00:39:40;;;;;;;3.03;1.55;;;22.80;39.10;;;;;;4999941;28;20015;-43
2022/04/22 00:42:08;;;;;;;3.40;1.60;;;22.80;39.10;;;;;;4988425;28;20031;-46
2022/04/22 00:44:34;;;;;;;3.30;1.55;;;22.80;39.10;;;;;;4979633;28;20370;-44
2022/04/22 00:46:59;;;;;;;2.38;1.35;;;22.80;39.00;;;;;;4979974;28;20132;-45
2022/04/22 00:49:25;;;;;;;2.78;1.55;;;22.70;39.10;;;;;;4986111;28;20075;-44
2022/04/22 00:51:51;;;;;;;2.65;1.50;;;22.80;39.10;;;;;;4964449;28;20606;-45
2022/04/22 00:54:16;;;;;;;4.55;1.63;;;22.70;39.10;;;;;;4999506;28;20307;-46
2022/04/22 00:56:42;;;;;;;2.60;1.48;;;22.80;39.10;;;;;;4999040;28;20275;-44
2022/04/22 00:59:10;;;;;;;2.53;1.40;;;22.70;39.10;;;;;;4980668;28;20417;-45
2022/04/22 01:01:36;;;;;;;3.25;1.45;;;22.70;39.10;;;;;;4998744;28;20699;-44
2022/04/22 01:09:47;;;;;;;2.80;1.30;;;22.70;39.10;;;;;;4998912;28;20033;-44
2022/04/22 01:12:13;;;;;;;2.80;1.60;;;22.70;39.10;;;;;;4998896;28;20080;-43
2022/04/22 01:14:41;;;;;;;2.90;1.60;;;22.70;39.00;;;;;;4998596;28;20036;-45
2022/04/22 01:17:08;;;;;;;2.50;1.35;;;22.70;39.00;;;;;;4997800;28;20080;-45
2022/04/22 01:19:35;;;;;;;2.28;1.38;;;22.70;39.10;;;;;;4998602;28;20148;-45
2022/04/22 01:22:01;;;;;;;2.78;1.42;;;22.70;39.10;;;;;;4998364;28;20062;-44
2022/04/22 01:24:27;;;;;;;2.58;1.30;;;22.70;39.10;;;;;;4998495;28;20626;-45
2022/04/22 01:26:57;;;;;;;2.70;1.52;;;22.70;39.70;;;;;;4999081;28;20612;-45
2022/04/22 01:29:23;;;;;;;2.97;1.52;;;22.70;39.10;;;;;;4999043;28;20029;-44
2022/04/22 01:31:49;;;;;;;2.72;1.60;;;22.70;39.00;;;;;;4980354;28;20029;-45
2022/04/22 01:34:15;;;;;;;4.15;2.03;;;22.70;39.10;;;;;;4998418;28;20037;-45
2022/04/22 01:36:41;;;;;;;2.30;1.35;;;22.70;39.00;;;;;;4998253;28;20441;-45
2022/04/22 01:39:07;;;;;;;2.42;1.50;;;22.70;39.10;;;;;;4998701;28;20040;-45
2022/04/22 01:41:32;;;;;;;2.38;1.40;;;22.60;39.00;;;;;;4996126;28;20434;-45
2022/04/22 01:43:58;;;;;;;2.67;1.50;;;22.60;39.00;;;;;;4979467;28;20060;-44
2022/04/22 01:46:24;;;;;;;3.20;1.77;;;22.60;39.00;;;;;;4978466;28;20029;-45
2022/04/22 01:48:50;;;;;;;2.50;1.15;;;22.60;39.00;;;;;;4980796;28;20805;-45
2022/04/22 01:51:15;;;;;;;3.08;1.60;;;22.60;39.00;;;;;;4998232;28;20045;-43
2022/04/22 01:53:41;;;;;;;3.25;1.60;;;22.60;39.00;;;;;;4998442;28;20030;-44
2022/04/22 01:56:07;;;;;;;3.60;1.58;;;22.60;38.90;;;;;;4998749;28;20414;-45
2022/04/22 01:58:33;;;;;;;2.65;1.40;;;22.60;38.90;;;;;;4998449;28;20327;-45
2022/04/22 02:00:59;;;;;;;2.90;1.50;;;22.60;38.90;;;;;;4997676;28;20240;-44
2022/04/22 02:03:25;;;;;;;4.03;1.80;;;22.60;39.60;;;;;;4997814;28;20037;-45
2022/04/22 02:05:50;;;;;;;2.67;1.27;;;22.60;38.90;;;;;;4997694;28;20033;-45
2022/04/22 02:08:16;;;;;;;2.22;1.33;;;22.60;39.00;;;;;;4980495;28;20497;-44
2022/04/22 02:10:43;;;;;;;2.47;1.48;;;22.60;38.90;;;;;;4998204;28;20032;-45
2022/04/22 02:13:09;;;;;;;2.03;1.17;;;22.60;39.00;;;;;;4998054;28;20111;-45
2022/04/22 02:15:36;;;;;;;3.28;1.55;;;22.60;39.00;;;;;;4998083;28;20533;-45
2022/04/22 02:18:02;;;;;;;2.95;1.52;;;22.60;38.90;;;;;;4998032;28;20272;-44
2022/04/22 02:20:27;;;;;;;2.95;1.38;;;22.60;38.90;;;;;;4995977;28;20669;-44
2022/04/22 02:22:53;;;;;;;2.80;1.67;;;22.60;38.90;;;;;;4994239;28;20033;-43
2022/04/22 02:25:19;;;;;;;2.70;1.45;;;22.60;38.90;;;;;;4998224;28;20478;-44
2022/04/22 02:30:29;;;;;;;2.75;1.60;;;22.60;38.90;;;;;;4997191;28;20062;-46
2022/04/22 02:32:56;;;;;;;2.85;1.45;;;22.60;38.90;;;;;;4997016;28;20316;-45
2022/04/22 02:35:21;;;;;;;2.40;1.30;;;22.60;38.90;;;;;;4997516;28;20112;-45
2022/04/22 02:37:52;;;;;;;3.28;1.50;;;22.60;38.90;;;;;;4979179;28;20349;-45
2022/04/22 02:45:49;;;;;;;3.42;1.20;;;22.60;38.90;;;;;;4997292;28;20022;-44
2022/04/22 02:48:14;;;;;;;2.25;1.15;;;22.60;38.90;;;;;;4997494;28;20030;-45
2022/04/22 02:50:40;;;;;;;2.42;1.10;;;22.60;38.80;;;;;;4996971;28;20635;-44
2022/04/22 02:53:06;;;;;;;3.22;1.40;;;22.50;38.90;;;;;;4996977;28;20037;-45
2022/04/22 02:55:35;;;;;;;2.53;1.50;;;22.50;38.90;;;;;;4997691;28;20460;-45
2022/04/22 02:58:01;;;;;;;2.40;1.23;;;22.50;38.90;;;;;;4979624;28;20433;-44
2022/04/22 03:00:27;;;;;;;3.00;1.50;;;22.50;38.90;;;;;;4997034;28;20245;-45
2022/04/22 03:02:52;;;;;;;2.42;1.30;;;22.50;38.80;;;;;;4996734;28;20041;-45
2022/04/22 03:05:18;;;;;;;2.58;1.30;;;22.50;38.90;;;;;;4996797;28;20022;-46
2022/04/22 03:07:44;;;;;;;2.13;1.30;;;22.50;38.80;;;;;;4996870;28;20076;-45
2022/04/22 03:10:10;;;;;;;2.28;1.25;;;22.50;39.40;;;;;;4996885;28;20057;-45
2022/04/22 03:12:36;;;;;;;3.42;1.75;;;22.50;38.90;;;;;;4996152;28;20029;-45
2022/04/22 03:15:03;;;;;;;2.92;1.70;;;22.50;38.80;;;;;;4990674;28;20040;-45
2022/04/22 03:17:29;;;;;;;2.78;1.58;;;22.50;38.90;;;;;;4996917;28;20065;-45
2022/04/22 03:19:55;;;;;;;2.92;1.50;;;22.50;38.80;;;;;;4996563;28;20014;-45
2022/04/22 03:22:21;;;;;;;2.20;1.30;;;22.50;38.90;;;;;;4992388;28;20057;-44
2022/04/22 03:24:47;;;;;;;1.92;1.20;;;22.50;38.80;;;;;;4995916;28;20054;-45
2022/04/22 03:27:13;;;;;;;2.47;1.45;;;22.50;38.80;;;;;;4996501;28;20080;-45
2022/04/22 03:29:38;;;;;;;1.95;1.13;;;22.50;38.80;;;;;;4990924;28;20041;-46
2022/04/22 03:32:05;;;;;;;2.60;1.38;;;22.50;38.90;;;;;;4996976;28;20022;-43
2022/04/22 03:34:31;;;;;;;2.72;1.20;;;22.40;38.70;;;;;;4990942;28;20278;-45
2022/04/22 03:36:59;;;;;;;2.50;1.25;;;22.40;38.80;;;;;;4996347;28;20022;-44
2022/04/22 03:39:24;;;;;;;2.50;1.30;;;22.40;38.80;;;;;;4992542;28;20397;-45
2022/04/22 03:41:50;;;;;;;2.13;1.30;;;22.40;38.80;;;;;;4999600;28;20070;-44
2022/04/22 03:44:16;;;;;;;2.30;1.27;;;22.40;38.80;;;;;;4993602;28;20061;-44
2022/04/22 03:46:42;;;;;;;2.40;1.33;;;22.40;38.70;;;;;;4980859;28;20015;-45
2022/04/22 03:49:09;;;;;;;2.58;1.40;;;22.40;38.80;;;;;;4985446;28;20026;-43
2022/04/22 03:51:36;;;;;;;3.05;1.75;;;22.40;38.70;;;;;;5000302;28;20225;-44
2022/04/22 03:54:02;;;;;;;2.33;1.33;;;22.40;38.60;;;;;;5000680;28;20028;-45
2022/04/22 03:59:12;;;;;;;2.22;1.38;;;22.40;38.70;;;;;;5000845;28;20028;-44
2022/04/22 04:01:38;;;;;;;2.05;1.00;;;22.40;38.70;;;;;;5000112;28;20022;-45
2022/04/22 04:04:04;;;;;;;3.20;1.55;;;22.40;38.70;;;;;;5000439;28;20493;-45
2022/04/22 04:06:29;;;;;;;2.65;1.55;;;22.40;38.70;;;;;;5000159;28;20117;-45
2022/04/22 04:17:09;;;;;;;1.98;1.20;;;22.40;38.80;;;;;;4999889;28;20082;-45
2022/04/22 04:25:03;;;;;;;2.47;1.20;;;22.40;39.00;;;;;;5000487;28;20077;-45
2022/04/22 04:27:29;;;;;;;2.65;1.42;;;22.40;39.60;;;;;;4999620;28;20034;-44
2022/04/22 04:29:55;;;;;;;3.25;1.73;;;22.50;39.10;;;;;;4999540;28;20053;-43
2022/04/22 04:32:21;;;;;;;2.53;1.40;;;22.50;39.00;;;;;;4992776;28;20042;-45
2022/04/22 04:34:47;;;;;;;2.67;1.50;;;22.60;39.00;;;;;;4999040;28;20060;-45
2022/04/22 04:37:12;;;;;;;1.73;1.17;;;22.60;39.00;;;;;;4996924;28;20018;-46
2022/04/22 04:39:39;;;;;;;2.28;1.20;;;22.70;39.10;;;;;;4997750;28;20025;-46
2022/04/22 04:42:05;;;;;;;2.70;1.45;;;22.70;38.90;;;;;;4998500;28;20025;-44
2022/04/22 04:44:31;;;;;;;2.78;1.60;;;22.70;38.90;;;;;;4997639;28;20092;-44
2022/04/22 04:46:57;;;;;;;2.50;1.45;;;22.80;39.00;;;;;;4999513;28;20026;-45
2022/04/22 04:49:23;;;;;;;3.58;1.48;;;22.80;38.80;;;;;;4997872;28;20657;-45
2022/04/22 04:51:48;;;;;;;2.50;1.50;;;22.90;38.80;;;;;;4997461;28;20214;-43
2022/04/22 04:54:14;;;;;;;4.00;1.75;;;23.00;38.60;;;;;;4996700;28;20530;-45
2022/04/22 04:56:40;;;;;;;8.60;3.22;;;23.00;38.50;;;;;;4997588;28;20021;-45
2022/04/22 04:59:05;;;;;;;18.63;6.75;;;23.00;38.50;;;;;;4996803;28;20049;-46
2022/04/22 05:01:32;;;;;;;14.95;6.10;;;23.10;38.70;;;;;;4983408;28;20030;-45
2022/04/22 05:03:57;;;;;;;15.77;6.15;;;23.10;38.50;;;;;;4996561;28;20030;-45
2022/04/22 05:06:23;;;;;;;15.82;5.95;;;23.20;38.50;;;;;;4996274;28;20022;-44
2022/04/22 05:08:49;;;;;;;21.75;6.47;;;23.20;38.50;;;;;;4978595;28;20068;-45
2022/04/22 05:11:14;;;;;;;19.52;6.47;;;23.20;38.60;;;;;;4997366;28;20050;-46
2022/04/22 05:13:40;;;;;;;15.25;6.05;;;23.20;39.10;;;;;;4997722;28;20029;-44
2022/04/22 05:16:06;;;;;;;13.77;5.35;;;23.30;38.80;;;;;;4997565;28;20946;-45
2022/04/22 05:18:32;;;;;;;12.13;4.38;;;23.30;38.60;;;;;;4996649;28;20038;-46
2022/04/22 05:20:57;;;;;;;12.55;5.07;;;23.40;38.60;;;;;;4971646;28;20121;-45
2022/04/22 05:23:23;;;;;;;10.93;4.50;;;23.40;38.70;;;;;;4992318;28;20101;-43
2022/04/22 05:25:49;;;;;;;9.10;4.50;;;23.40;38.70;;;;;;4995821;28;20168;-42
2022/04/22 05:28:15;;;;;;;8.85;3.83;;;23.50;39.00;;;;;;4989560;28;20694;-45
2022/04/22 05:33:25;;;;;;;10.15;4.10;;;23.50;38.80;;;;;;4998519;28;20056;-46
2022/04/22 05:35:50;;;;;;;7.60;3.42;;;23.50;38.90;;;;;;4998611;28;20033;-46
2022/04/22 05:38:17;;;;;;;8.25;3.78;;;23.50;38.80;;;;;;4999069;28;20038;-45
2022/04/22 05:40:48;;;;;;;6.80;3.30;;;23.50;39.40;;;;;;4998252;28;20030;-45
2022/04/22 05:43:14;;;;;;;6.82;3.88;;;23.60;38.70;;;;;;4999244;28;20101;-46
2022/04/22 05:45:40;;;;;;;7.60;2.90;;;23.60;38.70;;;;;;4998961;28;20172;-44
2022/04/22 05:48:06;;;;;;;8.98;3.30;;;23.60;38.60;;;;;;4998935;28;20030;-46
2022/04/22 05:50:31;;;;;;;6.72;3.10;;;23.60;38.80;;;;;;4998084;28;20498;-46
2022/04/22 05:52:57;;;;;;;6.35;2.95;;;23.60;38.90;;;;;;4998080;28;20030;-46
2022/04/22 05:55:25;;;;;;;6.70;3.53;;;23.70;38.90;;;;;;4999263;28;20083;-45
2022/04/22 05:57:53;;;;;;;5.93;2.88;;;23.70;38.80;;;;;;4997801;28;20080;-45
2022/04/22 06:00:24;;;;;;;5.68;2.67;;;23.70;38.80;;;;;;4998764;28;20699;-45
2022/04/22 06:02:50;;;;;;;5.28;2.60;;;23.70;38.60;;;;;;4997766;28;20673;-45
2022/04/22 06:05:20;;;;;;;6.07;2.97;;;23.70;38.50;;;;;;4998732;28;20160;-44
2022/04/22 06:07:46;;;;;;;6.22;3.00;;;23.80;38.50;;;;;;4998288;28;20209;-45
2022/04/22 06:10:31;;;;;;;7.28;3.22;;;23.80;38.70;;;;;;4998014;28;20033;-46
2022/04/22 06:13:00;;;;;;;7.43;2.72;;;23.80;38.20;;;;;;4998240;28;20037;-46
2022/04/22 06:15:27;;;;;;;5.15;2.47;;;23.90;38.10;;;;;;4997726;28;20029;-45
2022/04/22 06:17:52;;;;;;;5.70;3.03;;;23.90;38.40;;;;;;4998073;28;20464;-46
2022/04/22 06:20:19;;;;;;;4.45;2.70;;;23.90;38.40;;;;;;4998443;28;20022;-44
2022/04/22 06:22:44;;;;;;;4.28;2.10;;;23.90;38.40;;;;;;4980059;28;20037;-44
2022/04/22 06:25:11;;;;;;;4.63;2.22;;;23.90;38.40;;;;;;4998260;28;20521;-44
2022/04/22 06:27:41;;;;;;;6.20;3.00;;;23.90;38.30;;;;;;4980900;28;20072;-44
2022/04/22 06:30:23;;;;;;;4.55;2.42;;;23.90;38.30;;;;;;4996182;28;20049;-44
2022/04/22 06:32:51;;;;;;;5.53;2.60;;;23.90;38.10;;;;;;4997746;28;20101;-44
2022/04/22 06:35:18;;;;;;;4.55;2.53;;;23.90;37.80;;;;;;4996831;28;20088;-43
2022/04/22 06:37:49;;;;;;;4.82;2.70;;;24.00;37.80;;;;;;4993533;28;20174;-44
2022/04/22 06:45:48;;;;;;;3.95;2.45;;;24.00;37.40;;;;;;4996696;28;20053;-45
2022/04/22 06:48:33;;;;;;;4.53;2.17;;;24.00;37.00;;;;;;4996439;28;20091;-45
2022/04/22 06:51:00;;;;;;;4.93;2.17;;;24.00;37.00;;;;;;4995104;28;20073;-44
2022/04/22 06:53:27;;;;;;;4.28;2.40;;;24.00;37.00;;;;;;4996422;28;20395;-45
2022/04/22 06:55:53;;;;;;;4.85;2.70;;;24.00;37.00;;;;;;4996344;28;20034;-44
2022/04/22 06:58:21;;;;;;;4.25;2.45;;;24.00;36.90;;;;;;4996041;28;20030;-45
2022/04/22 07:00:47;;;;;;;5.85;3.22;;;24.00;37.00;;;;;;4994795;28;20022;-44
2022/04/22 07:03:15;;;;;;;5.18;2.88;;;24.00;36.70;;;;;;4996244;28;20111;-44
2022/04/22 07:05:42;;;;;;;4.40;2.65;;;24.00;36.80;;;;;;4996623;28;20695;-44
2022/04/22 07:08:14;;;;;;;6.82;2.53;;;24.00;36.80;;;;;;4996045;28;20697;-44
2022/04/22 07:10:49;;;;;;;4.07;2.28;;;24.00;36.60;;;;;;4996351;28;20034;-44
2022/04/22 07:13:18;;;;;;;4.32;2.47;;;24.00;36.60;;;;;;4994607;28;20594;-44
2022/04/22 07:15:46;;;;;;;5.40;2.65;;;24.00;36.50;;;;;;4996808;28;20057;-46
2022/04/22 07:18:13;;;;;;;4.82;2.75;;;24.00;37.10;;;;;;4997032;28;20026;-46
2022/04/22 07:20:39;;;;;;;4.25;2.63;;;24.00;37.00;;;;;;4998673;28;20022;-45
2022/04/22 07:23:05;;;;;;;5.43;2.40;;;24.00;37.30;;;;;;4997044;28;20469;-43
2022/04/22 07:25:31;;;;;;;8.88;2.67;;;24.00;37.00;;;;;;4998816;28;20748;-43
2022/04/22 07:27:58;;;;;;;4.95;2.63;;;24.00;36.70;;;;;;4999784;28;20093;-43
2022/04/22 07:30:25;;;;;;;4.20;2.60;;;24.10;36.70;;;;;;4999899;28;20032;-43
2022/04/22 07:32:51;;;;;;;5.13;2.47;;;24.10;36.60;;;;;;4999664;28;20415;-43
2022/04/22 07:35:19;;;;;;;4.75;2.28;;;24.10;36.60;;;;;;4999954;28;20129;-43
2022/04/22 07:37:47;;;;;;;4.18;2.33;;;24.10;36.50;;;;;;4999484;28;20030;-43
2022/04/22 07:40:14;;;;;;;3.83;2.33;;;24.10;36.60;;;;;;4998817;28;20634;-43
2022/04/22 07:46:46;;;;;;;4.40;2.30;;;24.10;36.50;;;;;;4999875;28;20030;-43
2022/04/22 07:48:12;;;;;;;4.22;2.40;;;24.10;36.50;;;;;;4999560;28;20030;-43
2022/04/22 07:50:38;;;;;;;3.95;2.13;;;24.10;36.50;;;;;;4999783;28;20030;-43
2022/04/22 07:53:04;;;;;;;3.42;2.25;;;24.10;36.50;;;;;;4999360;28;20042;-43
2022/04/22 07:55:29;;;;;;;4.07;2.28;;;24.10;36.50;;;;;;4999987;28;20504;-43
2022/04/22 07:57:57;;;;;;;4.82;2.25;;;24.10;36.60;;;;;;4999038;28;20029;-43
2022/04/22 08:00:22;;;;;;;4.57;2.17;;;24.10;36.70;;;;;;4999404;28;20425;-43
2022/04/22 08:02:49;;;;;;;4.90;2.20;;;24.10;36.80;;;;;;4999551;28;20038;-43
2022/04/22 08:05:15;;;;;;;3.83;2.40;;;24.10;36.90;;;;;;4981947;28;20030;-43
2022/04/22 08:07:41;;;;;;;3.60;2.30;;;24.10;36.90;;;;;;4999557;28;20076;-44
2022/04/22 08:10:07;;;;;;;4.75;2.22;;;24.10;36.80;;;;;;4999264;28;20093;-43
2022/04/22 08:12:33;;;;;;;3.38;1.98;;;24.00;36.60;;;;;;4993339;28;156731;-43
2022/04/22 08:15:00;;;;;;;3.63;2.30;;;24.00;36.60;;;;;;4967550;28;20824;-43
2022/04/22 08:17:26;;;;;;;4.03;2.40;;;24.00;36.50;;;;;;5000112;28;20087;-43
2022/04/22 08:19:52;;;;;;;3.67;1.90;;;24.00;36.60;;;;;;5000235;28;20036;-43
2022/04/22 08:22:18;;;;;;;4.53;2.70;;;24.00;36.60;;;;;;4980406;28;20481;-43
2022/04/22 08:24:44;;;;;;;4.10;1.85;;;24.00;36.70;;;;;;4984281;28;20030;-43
2022/04/22 08:27:10;;;;;;;3.63;2.10;;;24.00;36.60;;;;;;4962876;28;20023;-43
2022/04/22 08:29:37;;;;;;;3.33;1.90;;;24.00;36.60;;;;;;4979210;28;20764;-43
2022/04/22 08:32:04;;;;;;;3.95;2.03;;;23.90;36.70;;;;;;4979958;28;20041;-43
2022/04/22 08:34:29;;;;;;;5.55;2.05;;;23.90;36.60;;;;;;4980205;28;20487;-43
2022/04/22 08:36:55;;;;;;;3.85;2.35;;;23.90;36.70;;;;;;4985461;28;20021;-43
2022/04/22 08:39:21;;;;;;;3.90;2.22;;;23.90;36.70;;;;;;5000159;28;20041;-43
2022/04/22 08:41:48;;;;;;;3.63;2.05;;;23.90;36.70;;;;;;4999740;28;20033;-43
2022/04/22 08:44:14;;;;;;;3.67;2.47;;;23.90;36.70;;;;;;5000011;28;20033;-43
2022/04/22 08:52:11;;;;;;;3.50;1.92;;;23.80;36.70;;;;;;4981689;28;20025;-43
2022/04/22 08:54:43;;;;;;;3.30;1.98;;;23.80;36.70;;;;;;4999569;28;20052;-43
2022/04/22 08:57:09;;;;;;;4.50;2.20;;;23.80;36.70;;;;;;4999438;28;20037;-43
2022/04/22 08:59:35;;;;;;;3.42;1.77;;;23.90;36.80;;;;;;4994105;28;20030;-44
2022/04/22 09:02:02;;;;;;;3.78;2.17;;;23.90;37.20;;;;;;4984589;28;20034;-43
2022/04/22 09:04:28;;;;;;;3.92;2.17;;;23.90;37.00;;;;;;4980633;28;20031;-45
2022/04/22 09:06:55;;;;;;;3.65;1.92;;;23.90;37.00;;;;;;4999108;28;20240;-45
2022/04/22 09:09:21;;;;;;;3.65;1.95;;;23.90;37.00;;;;;;4999466;28;20033;-45
2022/04/22 09:11:47;;;;;;;4.75;2.20;;;23.90;37.00;;;;;;4998505;28;20334;-44
2022/04/22 09:14:19;;;;;;;4.63;2.22;;;23.90;37.60;;;;;;4998888;28;20038;-44
2022/04/22 09:16:45;;;;;;;4.38;1.90;;;23.90;37.00;;;;;;4999269;28;20036;-44
2022/04/22 09:19:11;;;;;;;3.88;1.95;;;23.90;37.00;;;;;;4997972;28;20033;-45
2022/04/22 09:21:38;;;;;;;5.65;2.13;;;23.90;37.20;;;;;;4986947;28;20026;-46
2022/04/22 09:24:22;;;;;;;3.80;1.95;;;23.90;37.80;;;;;;4998865;28;20022;-46
2022/04/22 09:27:12;;;;;;;5.07;2.10;;;23.90;37.90;;;;;;4998920;28;20219;-43
2022/04/22 09:29:54;;;;;;;4.88;2.13;;;23.90;37.70;;;;;;4998570;28;20097;-45
2022/04/22 09:32:35;;;;;;;5.57;2.30;;;23.90;37.60;;;;;;4998568;28;20033;-45
2022/04/22 09:35:17;;;;;;;4.25;2.35;;;23.90;37.50;;;;;;4998850;28;20525;-43
2022/04/22 09:43:37;;;;;;;5.03;2.40;;;23.90;37.60;;;;;;4998702;28;20105;-43
2022/04/22 09:46:03;;;;;;;;;;;23.90;37.80;;;;;;4998500;28;20022;-44
2022/04/22 09:48:41;;;;;;;5.05;2.58;;;23.90;37.90;;;;;;4998419;28;19913;-45
2022/04/22 09:51:27;;;;;;;7.72;2.85;;;23.90;38.10;;;;;;4978585;28;20487;-45
2022/04/22 09:54:11;;;;;;;4.65;2.50;;;23.90;38.20;;;;;;4979072;28;20034;-43
2022/04/22 09:56:41;;;;;;;4.63;2.47;;;23.90;38.20;;;;;;4978722;28;20057;-44
2022/04/22 09:59:26;;;;;;;4.70;2.28;;;23.90;38.30;;;;;;4978865;28;20272;-45
2022/04/22 10:01:52;;;;;;;5.43;2.92;;;23.90;38.60;;;;;;4978443;28;20520;-43
2022/04/22 10:04:22;;;;;;;6.47;2.65;;;23.90;38.50;;;;;;4978276;28;20029;-45
2022/04/22 10:06:50;;;;;;;4.18;2.45;;;23.90;38.40;;;;;;4962062;28;20018;-42
2022/04/22 10:09:16;;;;;;;6.70;2.63;;;23.90;38.80;;;;;;4989396;28;20377;-44
2022/04/22 10:11:44;;;;;;;5.15;2.47;;;23.90;39.20;;;;;;4978403;28;20336;-45
2022/04/22 10:14:11;;;;;;;4.07;2.22;;;23.90;39.20;;;;;;4992229;28;20575;-44
2022/04/22 10:16:37;;;;;;;4.45;2.42;;;23.90;38.90;;;;;;4980216;28;20069;-44
2022/04/22 10:19:05;;;;;;;4.20;2.60;;;23.90;39.10;;;;;;4998175;28;20044;-45
2022/04/22 10:21:32;;;;;;;4.60;2.50;;;23.90;39.10;;;;;;4997624;28;20026;-41
2022/04/22 10:23:58;;;;;;;4.35;2.50;;;23.90;39.10;;;;;;4997894;28;20032;-45
2022/04/22 10:26:27;;;;;;;6.13;2.97;;;23.90;39.50;;;;;;4997688;28;20025;-45
2022/04/22 10:28:54;;;;;;;4.75;2.80;;;24.00;39.40;;;;;;4997738;28;20037;-46
2022/04/22 10:31:22;;;;;;;5.28;2.60;;;24.00;39.50;;;;;;4997554;28;20033;-43
2022/04/22 10:33:48;;;;;;;3.97;2.22;;;24.00;39.20;;;;;;4998378;28;20045;-43
2022/04/22 10:36:18;;;;;;;6.05;2.50;;;24.00;41.20;;;;;;4997806;28;20100;-44
2022/04/22 10:38:50;;;;;;;4.90;2.75;;;24.00;42.70;;;;;;4997775;28;20092;-44
2022/04/22 10:41:17;;;;;;;4.35;2.65;;;24.10;42.40;;;;;;4997421;28;20037;-45
2022/04/22 10:47:13;;;;;;;5.45;2.67;;;24.00;41.70;;;;;;4998426;28;20026;-45
2022/04/22 10:49:15;;;;;;;4.40;2.30;;;24.10;40.40;;;;;;4997416;28;20038;-44
2022/04/22 10:52:03;;;;;;;4.50;2.28;;;24.10;40.50;;;;;;4997197;28;20116;-44
2022/04/22 10:54:58;;;;;;;5.00;2.58;;;24.10;40.00;;;;;;4997617;28;20072;-49
2022/04/22 10:57:29;;;;;;;3.83;2.30;;;24.10;40.00;;;;;;4997821;28;20029;-44
2022/04/22 11:00:09;;;;;;;4.50;2.63;;;24.10;40.10;;;;;;4996886;28;20059;-45
2022/04/22 11:02:37;;;;;;;4.30;2.35;;;24.10;40.00;;;;;;4997143;28;20026;-45
2022/04/22 11:05:32;;;;;;;4.55;2.50;;;24.10;39.80;;;;;;4997838;28;20026;-45
2022/04/22 11:07:58;;;;;;;3.40;2.05;;;24.20;39.70;;;;;;4943235;28;20081;-44
2022/04/22 11:10:29;;;;;;;4.32;2.20;;;24.20;39.60;;;;;;4996956;28;20521;-45
2022/04/22 11:12:56;;;;;;;4.32;2.25;;;24.20;39.40;;;;;;4997599;28;20049;-45
2022/04/22 11:15:44;;;;;;;3.80;2.20;;;24.20;39.40;;;;;;4997830;28;20319;-45
2022/04/22 11:18:10;;;;;;;3.45;2.05;;;24.20;39.20;;;;;;4997943;28;20695;-46
2022/04/22 11:20:37;;;;;;;4.38;2.40;;;24.20;39.00;;;;;;4997717;28;20018;-47
2022/04/22 11:23:05;;;;;;;4.47;2.67;;;24.20;39.00;;;;;;4997809;28;20061;-45
2022/04/22 11:25:31;;;;;;;3.80;2.22;;;24.20;38.90;;;;;;4997793;28;20113;-46
2022/04/22 11:27:58;;;;;;;3.92;2.10;;;24.20;38.70;;;;;;4997548;28;20033;-46
2022/04/22 11:30:28;;;;;;;4.75;2.58;;;24.20;38.70;;;;;;4997058;28;20022;-45
2022/04/22 11:33:08;;;;;;;4.15;2.30;;;24.20;38.60;;;;;;4997643;28;20477;-46
2022/04/22 11:35:34;;;;;;;3.50;2.10;;;24.20;38.60;;;;;;4997250;28;20083;-45
2022/04/22 11:38:04;;;;;;;4.80;2.28;;;24.20;38.50;;;;;;4996894;28;20033;-45
2022/04/22 11:40:40;;;;;;;4.20;1.98;;;24.20;38.60;;;;;;4996545;28;20018;-46
2022/04/22 11:43:10;;;;;;;3.58;2.15;;;24.20;38.50;;;;;;4997783;28;20453;-45
2022/04/22 11:45:39;;;;;;;4.43;2.10;;;24.20;38.50;;;;;;4997360;28;20022;-45
2022/04/22 11:48:09;;;;;;;4.03;2.28;;;24.20;38.50;;;;;;4997213;28;20037;-45
2022/04/22 11:50:46;;;;;;;4.07;2.38;;;24.20;38.50;;;;;;4996279;28;20026;-45
2022/04/22 11:53:16;;;;;;;4.45;2.33;;;24.20;38.50;;;;;;4979646;28;20034;-42
2022/04/22 11:55:44;;;;;;;5.05;2.20;;;24.20;38.60;;;;;;4995550;28;20129;-42
2022/04/22 11:58:11;;;;;;;5.53;2.22;;;24.10;38.40;;;;;;4996663;28;20042;-41
2022/04/22 12:06:13;;;;;;;3.88;2.00;;;24.10;38.60;;;;;;4982624;28;20057;-41
2022/04/22 12:09:03;;;;;;;5.30;2.05;;;24.10;38.40;;;;;;5000194;28;20877;-44
2022/04/22 12:11:29;;;;;;;4.47;2.33;;;24.10;38.70;;;;;;4999806;28;20597;-46
2022/04/22 12:13:55;;;;;;;3.78;2.00;;;24.10;39.50;;;;;;4999951;28;20041;-44
2022/04/22 12:16:27;;;;;;;4.03;2.15;;;24.10;39.00;;;;;;4999858;28;20533;-42
2022/04/22 12:18:54;;;;;;;4.20;2.25;;;24.10;39.00;;;;;;4997609;28;20073;-43
2022/04/22 12:21:21;;;;;;;3.80;2.08;;;24.10;38.60;;;;;;4996617;28;20076;-41
2022/04/22 12:23:49;;;;;;;4.38;2.40;;;24.10;38.80;;;;;;4996704;28;20022;-42
2022/04/22 12:26:31;;;;;;;6.00;2.00;;;24.10;38.80;;;;;;4997112;28;20691;-43
2022/04/22 12:29:02;;;;;;;5.78;2.38;;;24.10;38.80;;;;;;4985036;28;20037;-42
2022/04/22 12:31:30;;;;;;;3.95;1.95;;;24.10;39.00;;;;;;4993705;28;20066;-42
2022/04/22 12:34:06;;;;;;;5.07;2.80;;;24.10;39.00;;;;;;4998813;28;20033;-43
2022/04/22 12:36:53;;;;;;;4.80;2.25;;;24.10;39.60;;;;;;4996823;28;20033;-43
2022/04/22 12:39:34;;;;;;;4.90;2.67;;;24.20;40.50;;;;;;4998707;28;20030;-42
2022/04/22 12:42:00;;;;;;;7.13;3.45;;;24.20;40.50;;;;;;4995346;28;20103;-43
2022/04/22 12:44:26;;;;;;;5.65;3.63;;;24.20;40.60;;;;;;4989624;28;20535;-43
2022/04/22 12:52:44;;;;;;;8.10;3.50;;;24.20;41.00;;;;;;4996005;28;20036;-42
2022/04/22 12:55:10;;;;;;;5.57;2.70;;;24.20;40.80;;;;;;4996638;28;20061;-41
2022/04/22 12:57:42;;;;;;;7.35;3.47;;;24.20;40.90;;;;;;4995231;28;20026;-41
2022/04/22 13:00:20;;;;;;;8.70;3.33;;;24.20;41.30;;;;;;4995767;28;20165;-41
2022/04/22 13:02:46;;;;;;;4.88;2.53;;;24.20;41.60;;;;;;4997169;28;20022;-41
2022/04/22 13:05:19;;;;;;;6.15;2.75;;;24.20;41.70;;;;;;4992492;28;20105;-41
2022/04/22 13:07:47;;;;;;;3.67;2.33;;;24.20;41.40;;;;;;4991647;28;20426;-42
2022/04/22 13:10:14;;;;;;;4.72;2.72;;;24.20;41.10;;;;;;4997278;28;20014;-42
2022/04/22 13:12:44;;;;;;;5.55;2.50;;;24.30;40.80;;;;;;4986680;28;20203;-42
2022/04/22 13:15:19;;;;;;;6.65;2.97;;;24.20;40.50;;;;;;4986895;28;20659;-42
2022/04/22 13:17:47;;;;;;;8.45;3.28;;;24.20;40.20;;;;;;4993761;28;20117;-42
2022/04/22 13:20:17;;;;;;;5.50;2.38;;;24.20;40.10;;;;;;4994510;28;20057;-42
2022/04/22 13:22:44;;;;;;;5.35;2.60;;;24.20;40.00;;;;;;4990701;28;20422;-41
2022/04/22 13:25:11;;;;;;;5.72;2.35;;;24.20;39.90;;;;;;4997061;28;20034;-41
2022/04/22 13:27:38;;;;;;;5.28;2.67;;;24.20;39.80;;;;;;4996229;28;20036;-41
2022/04/22 13:30:05;;;;;;;7.18;2.75;;;24.20;39.80;;;;;;4994637;28;20037;-42
2022/04/22 13:32:31;;;;;;;4.75;2.40;;;24.20;39.70;;;;;;4982159;28;20038;-42
2022/04/22 13:34:57;;;;;;;5.22;2.35;;;24.20;39.80;;;;;;4982778;28;20022;-42
2022/04/22 13:37:23;;;;;;;4.30;2.30;;;24.20;39.70;;;;;;4992637;28;20053;-42
2022/04/22 13:39:49;;;;;;;4.22;2.35;;;24.20;39.70;;;;;;4997800;28;20306;-42
2022/04/22 13:42:15;;;;;;;4.53;2.20;;;24.20;39.70;;;;;;4997913;28;20100;-42
2022/04/22 13:52:55;;;;;;;5.90;2.38;;;24.10;39.80;;;;;;4987441;28;20045;-42
2022/04/22 13:55:21;;;;;;;4.25;2.38;;;24.10;39.80;;;;;;4991610;28;20026;-41
2022/04/22 13:57:47;;;;;;;6.10;2.92;;;24.10;39.80;;;;;;4981775;28;20084;-41
2022/04/22 14:00:13;;;;;;;5.32;2.42;;;24.00;39.70;;;;;;4977534;28;20053;-42
2022/04/22 14:02:39;;;;;;;5.00;2.58;;;24.00;39.70;;;;;;4977058;28;20041;-42
2022/04/22 14:05:05;;;;;;;5.20;3.08;;;24.00;39.70;;;;;;4977473;28;20027;-42